Time;durP1;ratioP1;P1;durP2;ratioP2;P2;SDS_P1;SDS_P2;PMS_P1;PMS_P2;Temp;Humidity;BMP_temperature;BMP_pressure;BME280_temperature;BME280_humidity;BME280_pressure;Samples;Min_cycle;Max_cycle;Signal;HPM_P1;HPM_P2
2022/09/17 00:02:21;;;;;;;;;;;22.10;89.30;;;;;;5093238;28;19975;-62
2022/09/17 00:04:47;;;;;;;;;;;21.90;88.90;;;;;;5087777;28;19925;-63
2022/09/17 00:07:13;;;;;;;;;;;22.00;88.80;;;;;;5089007;28;20011;-62
2022/09/17 00:09:38;;;;;;;;;;;22.20;89.30;;;;;;5082413;28;20010;-62
2022/09/17 00:12:04;;;;;;;;;;;21.90;89.00;;;;;;5073570;28;19938;-62
2022/09/17 00:14:30;;;;;;;;;;;22.20;89.00;;;;;;5074088;28;19932;-62
2022/09/17 00:16:55;;;;;;;;;;;21.80;89.00;;;;;;5079906;28;19924;-63
2022/09/17 00:19:21;;;;;;;;;;;21.90;88.80;;;;;;5078343;28;19932;-62
2022/09/17 00:21:47;;;;;;;;;;;21.70;88.60;;;;;;5072610;28;19925;-62
2022/09/17 00:24:13;;;;;;;;;;;21.90;89.20;;;;;;5092801;28;20397;-62
2022/09/17 00:26:38;;;;;;;;;;;21.80;88.80;;;;;;5092819;28;19970;-61
2022/09/17 00:29:04;;;;;;;;;;;21.90;88.80;;;;;;5092213;28;19968;-62
2022/09/17 00:31:30;;;;;;;;;;;21.60;88.80;;;;;;5086646;28;19931;-62
2022/09/17 00:33:56;;;;;;;;;;;22.10;89.20;;;;;;5093698;28;19924;-62
2022/09/17 00:36:22;;;;;;;;;;;21.80;89.20;;;;;;5092386;28;19950;-62
2022/09/17 00:38:51;;;;;;;;;;;21.80;88.80;;;;;;5085594;28;19924;-62
2022/09/17 00:41:16;;;;;;;;;;;21.70;88.70;;;;;;5081966;28;19925;-61
2022/09/17 00:43:47;;;;;;;;;;;21.90;89.10;;;;;;5073306;28;19935;-62
2022/09/17 00:46:19;;;;;;;;;;;21.90;88.80;;;;;;5073520;28;19928;-62
2022/09/17 00:48:45;;;;;;;;;;;21.80;88.80;;;;;;5073108;28;19924;-63
2022/09/17 00:51:11;;;;;;;;;;;21.90;88.80;;;;;;5089281;28;19924;-62
2022/09/17 00:53:36;;;;;;;;;;;21.80;89.00;;;;;;5073044;28;19921;-62
2022/09/17 00:56:22;;;;;;;;;;;21.90;88.80;;;;;;5074837;28;19975;-62
2022/09/17 00:58:49;;;;;;;;;;;21.80;88.90;;;;;;5088553;28;19928;-62
2022/09/17 01:01:14;;;;;;;;;;;21.50;88.60;;;;;;5075097;28;20369;-62
2022/09/17 01:03:40;;;;;;;;;;;21.80;88.60;;;;;;5072246;28;19964;-62
2022/09/17 01:06:16;;;;;;;;;;;22.00;88.80;;;;;;5073905;28;19931;-62
2022/09/17 01:08:55;;;;;;;;;;;21.70;88.40;;;;;;5056079;28;19974;-62
2022/09/17 01:11:33;;;;;;;;;;;21.60;88.50;;;;;;5076556;28;20015;-62
2022/09/17 01:13:58;;;;;;;;;;;21.50;88.40;;;;;;5082712;28;19930;-62
2022/09/17 01:16:24;;;;;;;;;;;21.80;88.50;;;;;;5076849;28;20011;-62
2022/09/17 01:18:56;;;;;;;;;;;21.60;88.40;;;;;;5076670;28;19925;-61
2022/09/17 01:21:25;;;;;;;;;;;21.60;88.50;;;;;;5076847;28;19970;-62
2022/09/17 01:24:02;;;;;;;;;;;21.50;88.50;;;;;;5076693;28;19925;-62
2022/09/17 01:26:46;;;;;;;;;;;21.70;87.80;;;;;;5079047;28;20270;-62
2022/09/17 01:29:30;;;;;;;;;;;21.60;87.70;;;;;;5095784;28;19974;-62
2022/09/17 01:31:58;;;;;;;;;;;21.50;87.60;;;;;;5094717;28;19968;-62
2022/09/17 01:34:27;;;;;;;;;;;21.80;88.60;;;;;;5095338;28;19924;-62
2022/09/17 01:36:56;;;;;;;;;;;21.90;88.70;;;;;;5082542;28;19924;-62
2022/09/17 01:39:28;;;;;;;;;;;21.90;88.60;;;;;;5089603;28;19935;-63
2022/09/17 01:41:54;;;;;;;;;;;21.40;88.20;;;;;;5081253;28;19985;-62
2022/09/17 01:44:46;;;;;;;;;;;21.70;88.90;;;;;;5076110;28;20372;-62
2022/09/17 01:47:12;;;;;;;;;;;;;;;;;;5072599;28;20482;-65
2022/09/17 01:49:38;;;;;;;;;;;21.90;88.70;;;;;;5113137;27;19924;-62
2022/09/17 01:52:03;;;;;;;;;;;21.50;88.40;;;;;;5082943;28;19930;-62
2022/09/17 01:54:30;;;;;;;;;;;21.60;88.20;;;;;;5075671;28;20015;-62
2022/09/17 01:57:03;;;;;;;;;;;21.60;88.30;;;;;;5075171;28;19975;-62
2022/09/17 01:59:30;;;;;;;;;;;21.60;88.30;;;;;;5075732;28;19931;-62
2022/09/17 02:02:00;;;;;;;;;;;21.70;88.40;;;;;;5078275;28;19986;-62
2022/09/17 02:04:30;;;;;;;;;;;21.40;87.40;;;;;;5108642;28;19931;-62
2022/09/17 02:06:59;;;;;;;;;;;21.50;88.40;;;;;;5074099;28;20386;-62
2022/09/17 02:09:33;;;;;;;;;;;21.60;88.40;;;;;;5082201;28;19924;-62
2022/09/17 02:11:59;;;;;;;;;;;21.60;88.40;;;;;;5066127;28;20412;-62
2022/09/17 02:14:35;;;;;;;;;;;21.50;88.80;;;;;;5076149;28;19929;-62
2022/09/17 02:17:10;;;;;;;;;;;21.70;87.50;;;;;;5095925;28;19931;-62
2022/09/17 02:19:37;;;;;;;;;;;21.70;88.40;;;;;;5092311;28;19986;-66
2022/09/17 02:22:10;;;;;;;;;;;21.70;88.40;;;;;;5089465;28;20011;-62
2022/09/17 02:24:45;;;;;;;;;;;21.50;87.50;;;;;;5075105;28;19924;-62
2022/09/17 02:27:16;;;;;;;;;;;21.50;88.30;;;;;;5073998;28;19946;-62
2022/09/17 02:29:42;;;;;;;;;;;21.60;88.30;;;;;;5078488;28;19961;-62
2022/09/17 02:32:08;;;;;;;;;;;;;;;;;;5085718;28;19920;-63
2022/09/17 02:34:34;;;;;;;;;;;21.40;88.10;;;;;;5095075;28;20000;-62
2022/09/17 02:36:59;;;;;;;;;;;21.40;88.20;;;;;;5084709;28;19920;-62
2022/09/17 02:39:25;;;;;;;;;;;21.70;88.20;;;;;;5090121;28;20446;-62
2022/09/17 02:41:51;;;;;;;;;;;21.50;88.30;;;;;;5074928;28;19947;-62
2022/09/17 02:44:29;;;;;;;;;;;21.60;88.30;;;;;;5077511;28;19990;-62
2022/09/17 02:47:07;;;;;;;;;;;21.80;88.40;;;;;;5079194;28;20278;-62
2022/09/17 02:49:55;;;;;;;;;;;21.60;88.20;;;;;;5093540;28;19931;-62
2022/09/17 02:52:27;;;;;;;;;;;21.50;88.20;;;;;;5075937;28;20040;-62
2022/09/17 02:55:11;;;;;;;;;;;21.50;88.20;;;;;;5082182;28;19928;-61
2022/09/17 02:57:38;;;;;;;;;;;21.30;88.00;;;;;;5075031;28;19925;-62
2022/09/17 03:00:05;;;;;;;;;;;21.40;88.10;;;;;;5088559;28;19950;-61
2022/09/17 03:02:42;;;;;;;;;;;21.30;88.00;;;;;;5090873;28;20322;-62
2022/09/17 03:05:08;;;;;;;;;;;21.70;88.20;;;;;;5085010;28;19924;-62
2022/09/17 03:07:33;;;;;;;;;;;21.70;88.20;;;;;;5084465;28;20250;-62
2022/09/17 03:09:59;;;;;;;;;;;21.30;87.90;;;;;;5079116;28;19932;-62
2022/09/17 03:12:25;;;;;;;;;;;21.60;88.40;;;;;;5073194;28;20014;-62
2022/09/17 03:14:51;;;;;;;;;;;21.50;88.00;;;;;;5076798;28;19920;-62
2022/09/17 03:17:16;;;;;;;;;;;21.50;88.00;;;;;;5074497;28;19925;-62
2022/09/17 03:19:42;;;;;;;;;;;21.10;87.80;;;;;;5073167;28;19921;-63
2022/09/17 03:22:08;;;;;;;;;;;21.60;88.10;;;;;;5089083;28;19924;-62
2022/09/17 03:24:34;;;;;;;;;;;21.20;87.90;;;;;;5093849;28;19924;-63
2022/09/17 03:26:59;;;;;;;;;;;21.20;88.00;;;;;;5080172;28;19930;-62
2022/09/17 03:29:25;;;;;;;;;;;21.40;88.00;;;;;;5093602;28;19961;-62
2022/09/17 03:31:51;;;;;;;;;;;21.40;88.00;;;;;;5081692;28;19924;-62
2022/09/17 03:34:17;;;;;;;;;;;21.70;88.20;;;;;;5073888;28;20019;-62
2022/09/17 03:36:42;;;;;;;;;;;21.60;88.20;;;;;;5074491;28;19975;-62
2022/09/17 03:39:08;;;;;;;;;;;21.20;88.00;;;;;;5072812;28;19924;-62
2022/09/17 03:41:34;;;;;;;;;;;21.50;88.10;;;;;;5088219;28;20405;-62
2022/09/17 03:43:59;;;;;;;;;;;21.30;88.10;;;;;;5073956;28;19924;-63
2022/09/17 03:46:25;;;;;;;;;;;21.30;88.00;;;;;;5073952;28;19928;-64
2022/09/17 03:48:50;;;;;;;;;;;21.10;88.00;;;;;;5083286;28;19928;-61
2022/09/17 03:51:16;;;;;;;;;;;21.30;88.10;;;;;;5089246;28;19924;-61
2022/09/17 03:53:42;;;;;;;;;;;21.50;88.20;;;;;;5091889;28;20408;-61
2022/09/17 03:56:07;;;;;;;;;;;21.30;88.20;;;;;;5079442;28;19925;-61
2022/09/17 03:58:33;;;;;;;;;;;21.10;88.00;;;;;;5091590;28;20019;-61
2022/09/17 04:00:58;;;;;;;;;;;21.20;88.00;;;;;;5093920;28;20290;-62
2022/09/17 04:03:24;;;;;;;;;;;21.20;87.90;;;;;;5082469;28;19932;-62
2022/09/17 04:05:50;;;;;;;;;;;21.20;87.80;;;;;;5090114;28;20285;-62
2022/09/17 04:08:16;;;;;;;;;;;21.20;88.20;;;;;;5085545;28;19932;-64
2022/09/17 04:10:42;;;;;;;;;;;21.30;87.80;;;;;;5073872;28;20297;-62
2022/09/17 04:13:08;;;;;;;;;;;21.60;88.00;;;;;;5086680;28;20393;-62
2022/09/17 04:15:34;;;;;;;;;;;21.20;88.10;;;;;;5073907;28;19924;-62
2022/09/17 04:17:59;;;;;;;;;;;21.30;88.20;;;;;;5075145;28;20775;-65
2022/09/17 04:20:25;;;;;;;;;;;21.10;87.80;;;;;;5077539;28;20397;-62
2022/09/17 04:22:51;;;;;;;;;;;21.40;88.00;;;;;;5073005;28;20366;-62
2022/09/17 04:25:17;;;;;;;;;;;21.40;87.90;;;;;;5087974;28;19931;-62
2022/09/17 04:27:43;;;;;;;;;;;21.40;88.00;;;;;;5094277;28;19920;-62
2022/09/17 04:30:08;;;;;;;;;;;21.10;87.80;;;;;;5087242;28;19924;-63
2022/09/17 04:32:34;;;;;;;;;;;21.40;87.90;;;;;;5082935;28;20392;-62
2022/09/17 04:35:00;;;;;;;;;;;21.30;87.80;;;;;;5079868;28;19981;-62
2022/09/17 04:37:26;;;;;;;;;;;21.40;87.90;;;;;;5073296;28;19924;-62
2022/09/17 04:39:51;;;;;;;;;;;21.30;87.80;;;;;;5073891;28;20266;-62
2022/09/17 04:42:17;;;;;;;;;;;21.30;88.20;;;;;;5073811;28;20362;-62
2022/09/17 04:44:42;;;;;;;;;;;21.30;87.80;;;;;;5084494;28;19966;-62
2022/09/17 04:47:08;;;;;;;;;;;21.40;87.90;;;;;;5084651;28;19931;-62
2022/09/17 04:49:34;;;;;;;;;;;21.40;88.00;;;;;;5079749;28;19924;-62
2022/09/17 04:51:59;;;;;;;;;;;21.40;87.90;;;;;;5086363;28;19924;-66
2022/09/17 04:54:25;;;;;;;;;;;21.20;87.80;;;;;;5079308;28;20305;-62
2022/09/17 04:56:51;;;;;;;;;;;21.30;88.10;;;;;;5075815;28;19924;-62
2022/09/17 04:59:16;;;;;;;;;;;21.20;87.80;;;;;;5076786;28;19975;-63
2022/09/17 05:01:42;;;;;;;;;;;21.40;88.00;;;;;;5079249;28;20377;-62
2022/09/17 05:04:08;;;;;;;;;;;21.40;87.90;;;;;;5090399;28;19923;-62
2022/09/17 05:06:34;;;;;;;;;;;21.30;87.90;;;;;;5093958;28;19970;-62
2022/09/17 05:09:00;;;;;;;;;;;21.10;87.80;;;;;;5096078;28;19924;-62
2022/09/17 05:11:26;;;;;;;;;;;21.40;88.00;;;;;;5096162;28;19924;-62
2022/09/17 05:13:52;;;;;;;;;;;21.30;88.00;;;;;;5094057;28;19950;-62
2022/09/17 05:16:18;;;;;;;;;;;21.60;88.10;;;;;;5090992;28;20384;-61
2022/09/17 05:18:43;;;;;;;;;;;21.30;87.90;;;;;;5089390;28;19929;-62
2022/09/17 05:21:09;;;;;;;;;;;21.40;88.00;;;;;;5077282;28;19925;-62
2022/09/17 05:23:35;;;;;;;;;;;21.40;88.00;;;;;;5076268;28;19947;-62
2022/09/17 05:26:00;;;;;;;;;;;21.40;88.00;;;;;;5093185;28;19924;-63
2022/09/17 05:28:26;;;;;;;;;;;21.20;87.90;;;;;;5085794;28;20015;-63
2022/09/17 05:30:52;;;;;;;;;;;21.30;87.90;;;;;;5076355;28;20340;-62
2022/09/17 05:33:19;;;;;;;;;;;21.60;88.50;;;;;;5076584;28;19931;-62
2022/09/17 05:35:45;;;;;;;;;;;21.40;87.90;;;;;;5085677;28;19924;-62
2022/09/17 05:38:10;;;;;;;;;;;21.20;87.90;;;;;;5091046;28;19925;-62
2022/09/17 05:40:39;;;;;;;;;;;21.50;88.10;;;;;;5076257;28;19925;-62
2022/09/17 05:43:05;;;;;;;;;;;21.20;87.80;;;;;;5078674;28;19924;-63
2022/09/17 05:45:34;;;;;;;;;;;21.30;87.80;;;;;;5077739;28;19939;-63
2022/09/17 05:48:00;;;;;;;;;;;21.20;87.70;;;;;;5079720;28;19925;-62
2022/09/17 05:50:26;;;;;;;;;;;21.30;87.70;;;;;;5083956;28;19924;-64
2022/09/17 05:52:51;;;;;;;;;;;21.50;87.80;;;;;;5076261;28;19935;-62
2022/09/17 05:55:17;;;;;;;;;;;21.70;87.90;;;;;;5088968;28;20448;-63
2022/09/17 05:57:43;;;;;;;;;;;21.30;87.60;;;;;;5077751;28;19974;-64
2022/09/17 06:00:10;;;;;;;;;;;21.20;87.40;;;;;;5092379;28;19932;-63
2022/09/17 06:02:36;;;;;;;;;;;21.30;87.40;;;;;;5078902;28;20283;-62
2022/09/17 06:05:02;;;;;;;;;;;21.70;87.70;;;;;;5075950;28;19936;-62
2022/09/17 06:07:28;;;;;;;;;;;21.50;87.50;;;;;;5079443;28;19921;-62
2022/09/17 06:09:54;;;;;;;;;;;21.50;87.40;;;;;;5074497;28;19947;-62
2022/09/17 06:12:19;;;;;;;;;;;21.50;87.60;;;;;;5075224;28;19927;-62
2022/09/17 06:14:45;;;;;;;;;;;21.50;87.30;;;;;;5074955;28;19931;-62
2022/09/17 06:17:11;;;;;;;;;;;21.60;87.10;;;;;;5074711;28;19925;-61
2022/09/17 06:19:36;;;;;;;;;;;21.40;87.00;;;;;;5092148;28;19928;-64
2022/09/17 06:22:03;;;;;;;;;;;21.80;87.30;;;;;;5074017;28;19983;-62
2022/09/17 06:24:29;;;;;;;;;;;21.60;86.90;;;;;;5075552;28;19925;-62
2022/09/17 06:26:55;;;;;;;;;;;21.70;86.90;;;;;;5075196;28;19931;-71
2022/09/17 06:29:20;;;;;;;;;;;21.90;86.70;;;;;;5078309;28;19964;-66
2022/09/17 06:31:49;;;;;;;;;;;22.20;87.00;;;;;;5085492;28;19931;-71
2022/09/17 06:34:15;;;;;;;;;;;22.00;86.90;;;;;;5075177;28;20008;-66
2022/09/17 06:36:40;;;;;;;;;;;22.30;86.00;;;;;;5074233;28;20405;-72
2022/09/17 06:39:07;;;;;;;;;;;22.20;85.70;;;;;;5075554;28;19924;-62
2022/09/17 06:41:33;;;;;;;;;;;22.50;85.40;;;;;;5085546;28;19978;-62
2022/09/17 06:43:58;;;;;;;;;;;22.50;85.30;;;;;;5094262;28;19960;-63
2022/09/17 06:46:24;;;;;;;;;;;22.40;85.30;;;;;;5088788;28;20019;-62
2022/09/17 06:48:50;;;;;;;;;;;22.20;85.40;;;;;;5090133;28;19925;-62
2022/09/17 06:51:15;;;;;;;;;;;22.60;85.40;;;;;;5075103;28;19925;-63
2022/09/17 06:53:41;;;;;;;;;;;22.50;85.50;;;;;;5078779;28;20019;-70
2022/09/17 06:56:07;;;;;;;;;;;22.30;85.10;;;;;;5076419;28;20058;-73
2022/09/17 06:58:35;;;;;;;;;;;22.50;84.80;;;;;;5090466;28;19971;-72
2022/09/17 07:01:01;;;;;;;;;;;22.60;85.40;;;;;;5077919;28;19958;-73
2022/09/17 07:03:27;;;;;;;;;;;22.60;85.60;;;;;;5083929;28;19931;-73
2022/09/17 07:05:53;;;;;;;;;;;22.50;85.30;;;;;;5093031;28;19924;-72
2022/09/17 07:08:18;;;;;;;;;;;22.50;85.00;;;;;;5079880;28;20286;-74
2022/09/17 07:10:44;;;;;;;;;;;22.30;85.00;;;;;;5074624;28;19928;-62
2022/09/17 07:13:10;;;;;;;;;;;22.50;85.20;;;;;;5075270;28;19924;-61
2022/09/17 07:15:35;;;;;;;;;;;22.40;85.10;;;;;;5092739;28;20297;-67
2022/09/17 07:18:08;;;;;;;;;;;22.60;85.50;;;;;;5090368;28;19928;-65
2022/09/17 07:20:34;;;;;;;;;;;22.70;85.00;;;;;;5077037;28;19925;-73
2022/09/17 07:23:00;;;;;;;;;;;22.60;85.20;;;;;;5087526;28;19932;-68
2022/09/17 07:25:25;;;;;;;;;;;22.80;84.80;;;;;;5086157;28;19939;-62
2022/09/17 07:27:51;;;;;;;;;;;23.20;84.80;;;;;;5085990;28;19978;-66
2022/09/17 07:30:17;;;;;;;;;;;23.00;84.10;;;;;;5092271;28;20348;-62
2022/09/17 07:32:43;;;;;;;;;;;23.40;84.40;;;;;;5075033;28;20006;-62
2022/09/17 07:35:09;;;;;;;;;;;23.20;83.40;;;;;;5074872;28;19925;-61
2022/09/17 07:37:34;;;;;;;;;;;23.10;83.20;;;;;;5076245;28;19943;-67
2022/09/17 07:40:00;;;;;;;;;;;23.40;82.70;;;;;;5093856;28;19927;-65
2022/09/17 07:42:26;;;;;;;;;;;23.60;82.60;;;;;;5094406;28;19931;-61
2022/09/17 07:44:52;;;;;;;;;;;23.60;82.10;;;;;;5076190;28;20029;-65
2022/09/17 07:47:18;;;;;;;;;;;23.70;82.00;;;;;;5088915;28;19963;-69
2022/09/17 07:49:44;;;;;;;;;;;23.70;81.90;;;;;;5076222;28;20351;-62
2022/09/17 07:52:10;;;;;;;;;;;23.70;81.60;;;;;;5094289;28;19924;-61
2022/09/17 07:54:37;;;;;;;;;;;23.50;81.50;;;;;;5080470;28;20086;-62
2022/09/17 07:57:05;;;;;;;;;;;23.60;81.10;;;;;;5073568;28;19925;-62
2022/09/17 07:59:35;;;;;;;;;;;23.50;80.90;;;;;;5074331;28;19982;-63
2022/09/17 08:02:02;;;;;;;;;;;23.70;80.90;;;;;;5073400;28;19944;-62
2022/09/17 08:04:31;;;;;;;;;;;23.60;80.60;;;;;;5084583;28;19931;-62
2022/09/17 08:06:56;;;;;;;;;;;23.70;81.00;;;;;;5074044;28;19925;-62
2022/09/17 08:09:22;;;;;;;;;;;24.00;81.70;;;;;;5072957;28;20019;-64
2022/09/17 08:11:48;;;;;;;;;;;23.70;81.40;;;;;;5092573;28;20370;-62
2022/09/17 08:14:14;;;;;;;;;;;23.80;81.60;;;;;;5083478;28;20382;-63
2022/09/17 08:16:40;;;;;;;;;;;23.70;81.60;;;;;;5071510;28;19932;-62
2022/09/17 08:19:05;;;;;;;;;;;23.80;81.40;;;;;;5086372;28;19924;-61
2022/09/17 08:21:31;;;;;;;;;;;24.00;81.20;;;;;;5097850;28;19928;-62
2022/09/17 08:23:57;;;;;;;;;;;24.10;81.30;;;;;;5093847;28;19924;-62
2022/09/17 08:26:22;;;;;;;;;;;23.70;81.00;;;;;;5078182;28;19977;-61
2022/09/17 08:28:53;;;;;;;;;;;23.80;81.10;;;;;;5096910;28;20545;-74
2022/09/17 08:31:19;;;;;;;;;;;24.00;81.40;;;;;;5097844;28;20437;-71
2022/09/17 08:33:45;;;;;;;;;;;24.10;81.30;;;;;;5098086;28;19967;-62
2022/09/17 08:36:11;;;;;;;;;;;23.90;81.10;;;;;;5094352;28;19928;-62
2022/09/17 08:38:37;;;;;;;;;;;23.80;81.30;;;;;;5087649;28;20011;-63
2022/09/17 08:41:10;;;;;;;;;;;23.90;81.10;;;;;;5088586;28;20003;-62
2022/09/17 08:43:54;;;;;;;;;;;23.70;80.00;;;;;;5078154;28;20266;-62
2022/09/17 08:46:19;;;;;;;;;;;23.70;80.10;;;;;;5088318;28;19924;-64
2022/09/17 08:48:53;;;;;;;;;;;23.80;81.30;;;;;;5097711;28;19931;-66
2022/09/17 08:51:38;;;;;;;;;;;23.60;79.90;;;;;;5097384;28;19939;-62
2022/09/17 08:54:16;;;;;;;;;;;23.60;79.90;;;;;;5096024;28;19928;-62
2022/09/17 08:56:43;;;;;;;;;;;23.90;80.00;;;;;;5084987;28;19928;-62
2022/09/17 08:59:18;;;;;;;;;;;23.60;81.00;;;;;;5079184;28;19932;-61
2022/09/17 09:01:49;;;;;;;;;;;23.50;79.60;;;;;;5086378;28;20365;-62
2022/09/17 09:04:15;;;;;;;;;;;23.50;79.40;;;;;;5054687;28;20399;-62
2022/09/17 09:06:42;;;;;;;;;;;23.60;80.30;;;;;;5057058;28;20033;-62
2022/09/17 09:09:27;;;;;;;;;;;23.50;80.60;;;;;;5055568;28;19925;-68
2022/09/17 09:11:55;;;;;;;;;;;24.00;79.40;;;;;;5044499;28;19971;-66
2022/09/17 09:14:22;;;;;;;;;;;23.80;80.60;;;;;;5055218;28;20397;-63
2022/09/17 09:16:47;;;;;;;;;;;23.90;80.50;;;;;;5055564;28;20305;-74
2022/09/17 09:19:21;;;;;;;;;;;24.00;80.40;;;;;;5056699;28;20004;-75
2022/09/17 09:22:06;;;;;;;;;;;23.80;79.10;;;;;;5053676;28;20450;-75
2022/09/17 09:24:39;;;;;;;;;;;23.90;80.80;;;;;;5037187;28;19925;-76
2022/09/17 09:27:19;;;;;;;;;;;24.00;79.40;;;;;;5047114;28;19931;-67
2022/09/17 09:30:01;;;;;;;;;;;24.20;80.10;;;;;;5050878;28;20006;-68
2022/09/17 09:32:27;;;;;;;;;;;24.10;79.50;;;;;;5035421;28;19932;-62
2022/09/17 09:34:53;;;;;;;;;;;24.20;80.90;;;;;;5040485;28;20322;-71
2022/09/17 09:37:20;;;;;;;;;;;24.20;80.60;;;;;;5053227;28;19925;-63
2022/09/17 09:39:46;;;;;;;;;;;24.00;80.70;;;;;;5052726;28;19967;-64
2022/09/17 09:42:14;;;;;;;;;;;24.00;80.40;;;;;;5055799;28;20109;-63
2022/09/17 09:44:40;;;;;;;;;;;23.60;79.20;;;;;;5055394;28;19949;-65
2022/09/17 09:47:25;;;;;;;;;;;24.00;80.20;;;;;;5055801;28;19925;-62
2022/09/17 09:49:55;;;;;;;;;;;23.90;79.20;;;;;;5054591;28;19925;-63
2022/09/17 09:52:20;;;;;;;;;;;23.80;80.50;;;;;;5067722;28;20302;-61
2022/09/17 09:54:49;;;;;;;;;;;24.10;80.40;;;;;;5054353;28;19929;-67
2022/09/17 09:57:16;;;;;;;;;;;24.20;79.40;;;;;;5051129;28;19994;-62
2022/09/17 09:59:42;;;;;;;;;;;24.00;80.50;;;;;;5054139;28;19936;-62
2022/09/17 10:02:08;;;;;;;;;;;23.90;79.70;;;;;;5055464;28;19925;-62
2022/09/17 10:04:33;;;;;;;;;;;23.80;79.60;;;;;;5066554;28;19929;-62
2022/09/17 10:07:02;;;;;;;;;;;24.00;79.90;;;;;;5071615;28;19932;-62
2022/09/17 10:09:31;;;;;;;;;;;24.20;79.00;;;;;;5062889;28;20336;-62
2022/09/17 10:12:00;;;;;;;;;;;24.00;79.80;;;;;;5075712;28;19928;-70
2022/09/17 10:14:26;;;;;;;;;;;24.00;78.80;;;;;;5075700;28;19925;-67
2022/09/17 10:17:11;;;;;;;;;;;24.00;80.00;;;;;;5070325;28;19964;-69
2022/09/17 10:19:37;;;;;;;;;;;23.80;78.80;;;;;;5068822;28;19932;-63
2022/09/17 10:22:21;;;;;;;;;;;24.00;80.00;;;;;;5065770;28;19924;-63
2022/09/17 10:24:46;;;;;;;;;;;23.90;78.40;;;;;;5072554;28;19947;-63
2022/09/17 10:27:13;;;;;;;;;;;23.90;79.80;;;;;;5073474;28;20382;-62
2022/09/17 10:29:45;;;;;;;;;;;23.70;79.70;;;;;;5075594;28;19920;-62
2022/09/17 10:32:14;;;;;;;;;;;23.50;78.30;;;;;;5056176;28;19971;-61
2022/09/17 10:34:40;;;;;;;;;;;23.90;78.40;;;;;;5073869;28;19946;-61
2022/09/17 10:37:08;;;;;;;;;;;23.70;79.50;;;;;;5073270;28;20395;-63
2022/09/17 10:39:36;;;;;;;;;;;23.70;79.80;;;;;;5073166;28;20419;-63
2022/09/17 10:42:22;;;;;;;;;;;23.70;79.80;;;;;;5071623;28;19931;-62
2022/09/17 10:44:55;;;;;;;;;;;23.80;79.70;;;;;;5074396;28;19957;-62
2022/09/17 10:47:22;;;;;;;;;;;23.60;78.00;;;;;;5072723;28;19955;-66
2022/09/17 10:49:53;;;;;;;;;;;23.70;79.40;;;;;;5060827;28;20435;-62
2022/09/17 10:52:23;;;;;;;;;;;23.50;78.10;;;;;;5070607;28;19932;-62
2022/09/17 10:55:00;;;;;;;;;;;23.50;78.50;;;;;;5072981;28;19931;-62
2022/09/17 10:57:30;;;;;;;;;;;23.90;78.60;;;;;;5073460;28;19931;-61
2022/09/17 10:59:58;;;;;;;;;;;23.60;80.10;;;;;;5073716;28;19932;-61
2022/09/17 11:02:30;;;;;;;;;;;23.70;80.30;;;;;;5071405;28;20334;-61
2022/09/17 11:05:14;;;;;;;;;;;24.00;79.20;;;;;;5074817;28;19924;-61
2022/09/17 11:07:41;;;;;;;;;;;23.80;79.10;;;;;;5074847;28;19976;-61
2022/09/17 11:10:22;;;;;;;;;;;23.60;80.40;;;;;;5073620;28;19924;-61
2022/09/17 11:12:53;;;;;;;;;;;24.10;79.20;;;;;;5073771;28;19985;-61
2022/09/17 11:15:39;;;;;;;;;;;24.00;79.10;;;;;;5055832;28;20337;-63
2022/09/17 11:18:05;;;;;;;;;;;23.70;80.10;;;;;;5072190;28;19924;-61
2022/09/17 11:20:46;;;;;;;;;;;23.80;79.50;;;;;;5074541;28;19936;-62
2022/09/17 11:23:30;;;;;;;;;;;24.00;78.80;;;;;;5057900;28;19928;-61
2022/09/17 11:25:57;;;;;;;;;;;23.90;78.70;;;;;;5073839;28;20400;-62
2022/09/17 11:28:26;;;;;;;;;;;24.10;80.00;;;;;;5074457;28;19924;-62
2022/09/17 11:31:00;;;;;;;;;;;23.90;78.50;;;;;;5074405;28;19932;-62
2022/09/17 11:33:26;;;;;;;;;;;24.10;78.50;;;;;;5073444;28;19932;-62
2022/09/17 11:35:55;;;;;;;;;;;23.80;79.20;;;;;;5065807;28;19924;-62
2022/09/17 11:38:23;;;;;;;;;;;24.20;79.50;;;;;;5067875;28;19978;-62
2022/09/17 11:40:57;;;;;;;;;;;24.10;79.00;;;;;;5071026;28;19931;-62
2022/09/17 11:43:27;;;;;;;;;;;23.90;79.10;;;;;;5074236;28;19932;-62
2022/09/17 11:45:56;;;;;;;;;;;24.10;77.90;;;;;;5070708;28;20294;-62
2022/09/17 11:48:23;;;;;;;;;;;24.10;77.70;;;;;;5074233;28;20289;-62
2022/09/17 11:50:59;;;;;;;;;;;24.00;79.00;;;;;;5073196;28;20082;-62
2022/09/17 11:53:29;;;;;;;;;;;24.00;77.40;;;;;;5055752;28;20302;-68
2022/09/17 11:55:56;;;;;;;;;;;24.00;77.50;;;;;;5069931;28;20301;-64
2022/09/17 11:58:22;;;;;;;;;;;23.90;78.90;;;;;;5064488;28;20018;-70
2022/09/17 12:00:58;;;;;;;;;;;24.20;78.60;;;;;;5072641;28;19972;-71
2022/09/17 12:03:30;;;;;;;;;;;24.00;77.50;;;;;;5070069;28;20260;-64
2022/09/17 12:05:57;;;;;;;;;;;24.20;77.60;;;;;;5064041;28;19987;-62
2022/09/17 12:08:33;;;;;;;;;;;23.80;78.80;;;;;;5058200;28;19928;-61
2022/09/17 12:11:18;;;;;;;;;;;24.00;77.50;;;;;;5080568;28;20011;-63
2022/09/17 12:13:49;;;;;;;;;;;24.20;77.50;;;;;;5067531;28;20278;-71
2022/09/17 12:16:16;;;;;;;;;;;24.00;77.80;;;;;;5062157;28;19932;-67
2022/09/17 12:18:45;;;;;;;;;;;23.90;78.80;;;;;;5070579;28;19929;-68
2022/09/17 12:21:12;;;;;;;;;;;24.10;79.40;;;;;;5072609;28;19928;-69
2022/09/17 12:23:40;;;;;;;;;;;23.80;79.10;;;;;;5072562;28;19931;-67
2022/09/17 12:26:08;;;;;;;;;;;24.10;79.10;;;;;;5072516;28;19931;-67
2022/09/17 12:28:36;;;;;;;;;;;24.20;77.40;;;;;;5070522;28;19931;-66
2022/09/17 12:31:08;;;;;;;;;;;24.30;79.50;;;;;;5073746;28;19925;-67
2022/09/17 12:33:36;;;;;;;;;;;24.40;77.30;;;;;;5072247;28;20004;-68
2022/09/17 12:36:02;;;;;;;;;;;24.20;78.20;;;;;;5066714;28;20421;-72
2022/09/17 12:38:46;;;;;;;;;;;24.00;78.00;;;;;;5073715;28;19974;-67
2022/09/17 12:41:18;;;;;;;;;;;24.00;77.00;;;;;;5067550;28;20382;-70
2022/09/17 12:43:53;;;;;;;;;;;24.10;77.10;;;;;;5072375;28;20416;-68
2022/09/17 12:46:18;;;;;;;;;;;24.00;76.90;;;;;;5054452;28;20011;-68
2022/09/17 12:49:08;;;;;;;;;;;23.90;77.60;;;;;;5064852;28;20357;-68
2022/09/17 12:52:10;;;;;;;;;;;23.90;76.20;;;;;;5065694;28;19978;-67
2022/09/17 12:54:58;;;;;;;;;;;23.90;76.20;;;;;;4989098;28;20328;-63
2022/09/17 12:57:23;;;;;;;;;;;24.00;76.20;;;;;;4985645;28;21997;-74
2022/09/17 12:59:51;;;;;;;;;;;24.10;77.60;;;;;;4989454;28;19933;-75
2022/09/17 13:02:19;;;;;;;;;;;24.30;78.00;;;;;;4958495;28;20012;-64
2022/09/17 13:04:45;;;;;;;;;;;23.90;77.80;;;;;;4988378;28;19960;-65
2022/09/17 13:07:23;;;;;;;;;;;23.90;77.20;;;;;;4993398;28;19930;-64
2022/09/17 13:09:51;;;;;;;;;;;23.90;76.30;;;;;;4992672;28;20265;-64
2022/09/17 13:12:24;;;;;;;;;;;23.60;75.70;;;;;;4993457;28;20320;-67
2022/09/17 13:14:52;;;;;;;;;;;24.00;75.90;;;;;;4976144;28;20016;-63
2022/09/17 13:17:22;;;;;;;;;;;24.00;75.70;;;;;;4994234;28;19926;-64
2022/09/17 13:20:06;;;;;;;;;;;24.10;76.90;;;;;;4960233;28;19926;-66
2022/09/17 13:22:33;;;;;;;;;;;23.80;75.30;;;;;;4991107;28;20002;-64
2022/09/17 13:25:03;;;;;;;;;;;23.70;76.30;;;;;;4976179;28;19926;-64
2022/09/17 13:27:29;;;;;;;;;;;23.90;75.50;;;;;;4966973;28;19929;-66
2022/09/17 13:29:55;;;;;;;;;;;23.80;76.90;;;;;;5055728;28;19924;-66
2022/09/17 13:32:38;;;;;;;;;;;24.00;76.90;;;;;;5071052;28;20333;-74
2022/09/17 13:35:10;;;;;;;;;;;23.90;75.60;;;;;;5055103;28;19928;-74
2022/09/17 13:37:51;;;;;;;;;;;23.80;75.70;;;;;;5055373;28;19921;-75
2022/09/17 13:40:26;;;;;;;;;;;23.70;75.50;;;;;;5073674;28;19932;-74
2022/09/17 13:42:56;;;;;;;;;;;23.40;76.90;;;;;;5058338;28;19924;-74
2022/09/17 13:45:22;;;;;;;;;;;23.50;77.10;;;;;;5074946;28;19924;-75
2022/09/17 13:47:51;;;;;;;;;;;24.00;77.20;;;;;;5074934;28;19939;-75
2022/09/17 13:50:29;;;;;;;;;;;23.70;75.80;;;;;;5054195;28;19929;-76
2022/09/17 13:52:54;;;;;;;;;;;23.60;75.50;;;;;;5074612;28;19924;-75
2022/09/17 13:55:36;;;;;;;;;;;23.60;76.80;;;;;;5076309;28;19931;-74
2022/09/17 13:58:07;;;;;;;;;;;23.50;75.50;;;;;;5074707;28;19925;-75
2022/09/17 14:00:51;;;;;;;;;;;23.30;76.90;;;;;;5066494;28;19925;-75
2022/09/17 14:03:29;;;;;;;;;;;23.40;75.40;;;;;;5076030;28;20021;-75
2022/09/17 14:05:55;;;;;;;;;;;23.50;75.80;;;;;;5075726;28;19982;-74
2022/09/17 14:08:29;;;;;;;;;;;23.20;76.80;;;;;;5075625;28;20412;-62
2022/09/17 14:10:55;;;;;;;;;;;23.40;76.00;;;;;;5071177;28;20289;-61
2022/09/17 14:13:24;;;;;;;;;;;23.30;77.30;;;;;;5075617;28;19936;-61
2022/09/17 14:15:53;;;;;;;;;;;23.20;75.90;;;;;;5075790;28;19924;-62
2022/09/17 14:18:27;;;;;;;;;;;23.30;76.00;;;;;;5075856;28;19928;-61
2022/09/17 14:20:54;;;;;;;;;;;23.10;75.80;;;;;;5074147;28;20378;-61
2022/09/17 14:23:20;;;;;;;;;;;23.30;77.00;;;;;;5073435;28;19964;-62
2022/09/17 14:25:51;;;;;;;;;;;23.40;76.80;;;;;;5074347;28;20013;-61
2022/09/17 14:28:20;;;;;;;;;;;23.10;75.70;;;;;;5075691;28;20336;-73
2022/09/17 14:30:45;;;;;;;;;;;23.20;77.10;;;;;;5074440;28;19931;-62